sensor_id;sensor_type;location;lat;lon;timestamp;temperature;humidity
23301;DHT22;11819;51.394;12.340;2022-07-22T00:02:01;23.70;59.90
23301;DHT22;11819;51.394;12.340;2022-07-22T00:04:27;23.70;60.10
23301;DHT22;11819;51.394;12.340;2022-07-22T00:06:52;23.60;60.20
23301;DHT22;11819;51.394;12.340;2022-07-22T00:09:18;23.60;60.20
23301;DHT22;11819;51.394;12.340;2022-07-22T00:11:44;23.60;60.30
23301;DHT22;11819;51.394;12.340;2022-07-22T00:14:09;23.60;60.40
23301;DHT22;11819;51.394;12.340;2022-07-22T00:16:35;23.60;60.50
23301;DHT22;11819;51.394;12.340;2022-07-22T00:19:00;23.50;60.70
23301;DHT22;11819;51.394;12.340;2022-07-22T00:21:26;23.50;60.90
23301;DHT22;11819;51.394;12.340;2022-07-22T00:23:52;23.40;61.50
23301;DHT22;11819;51.394;12.340;2022-07-22T00:26:17;23.30;61.80
23301;DHT22;11819;51.394;12.340;2022-07-22T00:28:43;23.30;61.90
23301;DHT22;11819;51.394;12.340;2022-07-22T00:31:09;23.30;62.00
23301;DHT22;11819;51.394;12.340;2022-07-22T00:33:34;23.30;62.10
23301;DHT22;11819;51.394;12.340;2022-07-22T00:36:00;23.30;62.10
23301;DHT22;11819;51.394;12.340;2022-07-22T00:38:25;23.30;62.20
23301;DHT22;11819;51.394;12.340;2022-07-22T00:40:51;23.20;62.30
23301;DHT22;11819;51.394;12.340;2022-07-22T00:43:17;23.20;62.40
23301;DHT22;11819;51.394;12.340;2022-07-22T00:45:42;23.20;62.70
23301;DHT22;11819;51.394;12.340;2022-07-22T00:48:08;23.10;63.00
23301;DHT22;11819;51.394;12.340;2022-07-22T00:50:34;23.10;63.20
23301;DHT22;11819;51.394;12.340;2022-07-22T00:53:00;23.10;63.20
23301;DHT22;11819;51.394;12.340;2022-07-22T00:55:27;23.10;63.30
23301;DHT22;11819;51.394;12.340;2022-07-22T00:57:52;23.00;63.50
23301;DHT22;11819;51.394;12.340;2022-07-22T01:00:20;22.90;63.80
23301;DHT22;11819;51.394;12.340;2022-07-22T01:02:46;22.90;64.00
23301;DHT22;11819;51.394;12.340;2022-07-22T01:05:12;22.90;64.00
23301;DHT22;11819;51.394;12.340;2022-07-22T01:07:38;22.90;64.10
23301;DHT22;11819;51.394;12.340;2022-07-22T01:10:05;22.90;64.10
23301;DHT22;11819;51.394;12.340;2022-07-22T01:12:32;22.90;64.30
23301;DHT22;11819;51.394;12.340;2022-07-22T01:14:57;22.80;64.20
23301;DHT22;11819;51.394;12.340;2022-07-22T01:17:23;22.80;64.30
23301;DHT22;11819;51.394;12.340;2022-07-22T01:19:50;22.80;64.40
23301;DHT22;11819;51.394;12.340;2022-07-22T01:22:16;22.80;64.50
23301;DHT22;11819;51.394;12.340;2022-07-22T01:24:42;22.80;64.70
23301;DHT22;11819;51.394;12.340;2022-07-22T01:27:08;22.70;64.80
23301;DHT22;11819;51.394;12.340;2022-07-22T01:29:34;22.70;65.00
23301;DHT22;11819;51.394;12.340;2022-07-22T01:31:59;22.70;65.10
23301;DHT22;11819;51.394;12.340;2022-07-22T01:34:25;22.70;65.20
23301;DHT22;11819;51.394;12.340;2022-07-22T01:36:52;22.70;65.50
23301;DHT22;11819;51.394;12.340;2022-07-22T01:39:18;22.60;65.50
23301;DHT22;11819;51.394;12.340;2022-07-22T01:41:43;22.60;65.60
23301;DHT22;11819;51.394;12.340;2022-07-22T01:44:11;22.60;65.60
23301;DHT22;11819;51.394;12.340;2022-07-22T01:46:38;22.70;65.60
23301;DHT22;11819;51.394;12.340;2022-07-22T01:49:03;22.70;65.60
23301;DHT22;11819;51.394;12.340;2022-07-22T01:51:33;22.70;65.60
23301;DHT22;11819;51.394;12.340;2022-07-22T01:53:59;22.70;65.60
23301;DHT22;11819;51.394;12.340;2022-07-22T01:56:25;22.60;65.70
23301;DHT22;11819;51.394;12.340;2022-07-22T01:58:51;22.60;65.90
23301;DHT22;11819;51.394;12.340;2022-07-22T02:01:22;22.60;66.00
23301;DHT22;11819;51.394;12.340;2022-07-22T02:03:47;22.60;66.20
23301;DHT22;11819;51.394;12.340;2022-07-22T02:06:13;22.50;66.20
23301;DHT22;11819;51.394;12.340;2022-07-22T02:08:39;22.60;66.30
23301;DHT22;11819;51.394;12.340;2022-07-22T02:11:31;22.60;66.30
23301;DHT22;11819;51.394;12.340;2022-07-22T02:13:58;22.50;66.50
23301;DHT22;11819;51.394;12.340;2022-07-22T02:16:26;22.50;66.70
23301;DHT22;11819;51.394;12.340;2022-07-22T02:18:52;22.50;66.70
23301;DHT22;11819;51.394;12.340;2022-07-22T02:21:19;22.40;66.80
23301;DHT22;11819;51.394;12.340;2022-07-22T02:23:45;22.40;67.00
23301;DHT22;11819;51.394;12.340;2022-07-22T02:26:11;22.30;67.40
23301;DHT22;11819;51.394;12.340;2022-07-22T02:28:36;22.20;67.60
23301;DHT22;11819;51.394;12.340;2022-07-22T02:31:02;22.20;67.90
23301;DHT22;11819;51.394;12.340;2022-07-22T02:33:28;22.10;68.10
23301;DHT22;11819;51.394;12.340;2022-07-22T02:35:56;22.10;68.10
23301;DHT22;11819;51.394;12.340;2022-07-22T02:38:22;22.10;68.20
23301;DHT22;11819;51.394;12.340;2022-07-22T02:40:48;22.00;68.40
23301;DHT22;11819;51.394;12.340;2022-07-22T02:43:13;21.90;68.70
23301;DHT22;11819;51.394;12.340;2022-07-22T02:45:39;21.90;69.00
23301;DHT22;11819;51.394;12.340;2022-07-22T02:48:06;21.80;69.50
23301;DHT22;11819;51.394;12.340;2022-07-22T02:50:33;21.70;69.80
23301;DHT22;11819;51.394;12.340;2022-07-22T02:52:59;21.60;69.90
23301;DHT22;11819;51.394;12.340;2022-07-22T02:55:29;21.60;71.00
23301;DHT22;11819;51.394;12.340;2022-07-22T02:57:57;21.60;70.30
23301;DHT22;11819;51.394;12.340;2022-07-22T03:00:22;21.60;70.40
23301;DHT22;11819;51.394;12.340;2022-07-22T03:02:48;21.60;70.40
23301;DHT22;11819;51.394;12.340;2022-07-22T03:05:13;21.60;70.50
23301;DHT22;11819;51.394;12.340;2022-07-22T03:07:47;21.60;70.50
23301;DHT22;11819;51.394;12.340;2022-07-22T03:10:14;21.60;70.50
23301;DHT22;11819;51.394;12.340;2022-07-22T03:12:39;21.60;70.50
23301;DHT22;11819;51.394;12.340;2022-07-22T03:15:05;21.60;70.60
23301;DHT22;11819;51.394;12.340;2022-07-22T03:17:35;21.60;70.50
23301;DHT22;11819;51.394;12.340;2022-07-22T03:20:08;21.60;70.60
23301;DHT22;11819;51.394;12.340;2022-07-22T03:22:34;21.60;70.80
23301;DHT22;11819;51.394;12.340;2022-07-22T03:25:00;21.60;70.90
23301;DHT22;11819;51.394;12.340;2022-07-22T03:27:26;21.60;70.90
23301;DHT22;11819;51.394;12.340;2022-07-22T03:29:53;21.50;71.00
23301;DHT22;11819;51.394;12.340;2022-07-22T03:32:18;21.50;71.30
23301;DHT22;11819;51.394;12.340;2022-07-22T03:34:46;21.40;71.40
23301;DHT22;11819;51.394;12.340;2022-07-22T03:37:12;21.40;71.60
23301;DHT22;11819;51.394;12.340;2022-07-22T03:39:40;21.40;71.60
23301;DHT22;11819;51.394;12.340;2022-07-22T03:42:05;21.40;71.60
23301;DHT22;11819;51.394;12.340;2022-07-22T03:44:38;21.50;71.70
23301;DHT22;11819;51.394;12.340;2022-07-22T03:47:04;21.50;71.60
23301;DHT22;11819;51.394;12.340;2022-07-22T03:49:30;21.50;71.40
23301;DHT22;11819;51.394;12.340;2022-07-22T03:51:57;21.60;71.40
23301;DHT22;11819;51.394;12.340;2022-07-22T03:54:24;21.60;71.30
23301;DHT22;11819;51.394;12.340;2022-07-22T03:56:50;21.60;71.30
23301;DHT22;11819;51.394;12.340;2022-07-22T03:59:16;21.60;71.40
23301;DHT22;11819;51.394;12.340;2022-07-22T04:01:42;21.50;71.60
23301;DHT22;11819;51.394;12.340;2022-07-22T04:04:10;21.40;71.60
23301;DHT22;11819;51.394;12.340;2022-07-22T04:06:40;21.40;71.70
23301;DHT22;11819;51.394;12.340;2022-07-22T04:09:10;21.40;71.80
23301;DHT22;11819;51.394;12.340;2022-07-22T04:11:36;21.30;72.00
23301;DHT22;11819;51.394;12.340;2022-07-22T04:14:02;21.30;72.10
23301;DHT22;11819;51.394;12.340;2022-07-22T04:16:27;21.30;72.20
23301;DHT22;11819;51.394;12.340;2022-07-22T04:18:58;21.30;72.30
23301;DHT22;11819;51.394;12.340;2022-07-22T04:21:41;21.30;72.40
23301;DHT22;11819;51.394;12.340;2022-07-22T04:24:09;21.30;72.50
23301;DHT22;11819;51.394;12.340;2022-07-22T04:26:36;21.30;72.60
23301;DHT22;11819;51.394;12.340;2022-07-22T04:29:03;21.30;72.70
23301;DHT22;11819;51.394;12.340;2022-07-22T04:31:30;21.30;72.80
23301;DHT22;11819;51.394;12.340;2022-07-22T04:34:02;21.30;72.70
23301;DHT22;11819;51.394;12.340;2022-07-22T04:36:28;21.30;72.60
23301;DHT22;11819;51.394;12.340;2022-07-22T04:38:54;21.40;72.50
23301;DHT22;11819;51.394;12.340;2022-07-22T04:41:19;21.40;72.40
23301;DHT22;11819;51.394;12.340;2022-07-22T04:43:45;21.40;72.30
23301;DHT22;11819;51.394;12.340;2022-07-22T04:46:11;21.40;72.30
23301;DHT22;11819;51.394;12.340;2022-07-22T04:48:40;21.40;72.30
23301;DHT22;11819;51.394;12.340;2022-07-22T04:51:06;21.40;72.50
23301;DHT22;11819;51.394;12.340;2022-07-22T04:53:33;21.40;72.50
23301;DHT22;11819;51.394;12.340;2022-07-22T04:55:59;21.40;72.60
23301;DHT22;11819;51.394;12.340;2022-07-22T04:58:24;21.40;72.60
23301;DHT22;11819;51.394;12.340;2022-07-22T05:00:50;21.40;72.70
23301;DHT22;11819;51.394;12.340;2022-07-22T05:03:16;21.40;72.60
23301;DHT22;11819;51.394;12.340;2022-07-22T05:05:43;21.50;72.60
23301;DHT22;11819;51.394;12.340;2022-07-22T05:08:09;21.50;72.40
23301;DHT22;11819;51.394;12.340;2022-07-22T05:10:36;21.50;72.20
23301;DHT22;11819;51.394;12.340;2022-07-22T05:13:02;21.60;72.20
23301;DHT22;11819;51.394;12.340;2022-07-22T05:15:28;21.50;72.20
23301;DHT22;11819;51.394;12.340;2022-07-22T05:17:54;21.60;72.10
23301;DHT22;11819;51.394;12.340;2022-07-22T05:20:26;21.50;72.10
23301;DHT22;11819;51.394;12.340;2022-07-22T05:22:52;21.60;72.10
23301;DHT22;11819;51.394;12.340;2022-07-22T05:25:26;21.60;72.10
23301;DHT22;11819;51.394;12.340;2022-07-22T05:27:54;21.60;72.00
23301;DHT22;11819;51.394;12.340;2022-07-22T05:30:25;21.60;72.00
23301;DHT22;11819;51.394;12.340;2022-07-22T05:32:52;21.60;72.00
23301;DHT22;11819;51.394;12.340;2022-07-22T05:35:26;21.60;72.00
23301;DHT22;11819;51.394;12.340;2022-07-22T05:37:52;21.70;72.00
23301;DHT22;11819;51.394;12.340;2022-07-22T05:40:18;21.70;71.80
23301;DHT22;11819;51.394;12.340;2022-07-22T05:42:44;21.70;71.70
23301;DHT22;11819;51.394;12.340;2022-07-22T05:45:09;21.70;71.80
23301;DHT22;11819;51.394;12.340;2022-07-22T05:47:36;21.70;71.80
23301;DHT22;11819;51.394;12.340;2022-07-22T05:50:02;21.70;72.00
23301;DHT22;11819;51.394;12.340;2022-07-22T05:52:29;21.60;71.80
23301;DHT22;11819;51.394;12.340;2022-07-22T05:54:55;21.60;71.90
23301;DHT22;11819;51.394;12.340;2022-07-22T05:57:21;21.60;72.10
23301;DHT22;11819;51.394;12.340;2022-07-22T05:59:47;21.60;72.10
23301;DHT22;11819;51.394;12.340;2022-07-22T06:02:13;21.70;72.20
23301;DHT22;11819;51.394;12.340;2022-07-22T06:04:45;21.70;72.10
23301;DHT22;11819;51.394;12.340;2022-07-22T06:07:10;21.70;72.10
23301;DHT22;11819;51.394;12.340;2022-07-22T06:09:38;21.80;72.00
23301;DHT22;11819;51.394;12.340;2022-07-22T06:12:04;21.80;71.90
23301;DHT22;11819;51.394;12.340;2022-07-22T06:14:30;21.80;71.80
23301;DHT22;11819;51.394;12.340;2022-07-22T06:16:56;21.90;71.80
23301;DHT22;11819;51.394;12.340;2022-07-22T06:19:22;21.90;71.70
23301;DHT22;11819;51.394;12.340;2022-07-22T06:21:50;22.00;71.60
23301;DHT22;11819;51.394;12.340;2022-07-22T06:24:16;22.00;71.50
23301;DHT22;11819;51.394;12.340;2022-07-22T06:26:42;22.00;71.30
23301;DHT22;11819;51.394;12.340;2022-07-22T06:29:09;22.00;71.30
23301;DHT22;11819;51.394;12.340;2022-07-22T06:31:36;22.00;71.20
23301;DHT22;11819;51.394;12.340;2022-07-22T06:34:01;22.10;71.30
23301;DHT22;11819;51.394;12.340;2022-07-22T06:36:39;22.10;71.10
23301;DHT22;11819;51.394;12.340;2022-07-22T06:39:05;22.20;71.00
23301;DHT22;11819;51.394;12.340;2022-07-22T06:41:49;22.30;71.00
23301;DHT22;11819;51.394;12.340;2022-07-22T06:44:29;22.30;70.90
23301;DHT22;11819;51.394;12.340;2022-07-22T06:47:11;22.40;70.60
23301;DHT22;11819;51.394;12.340;2022-07-22T06:49:37;22.40;70.50
23301;DHT22;11819;51.394;12.340;2022-07-22T06:52:03;22.40;70.50
23301;DHT22;11819;51.394;12.340;2022-07-22T06:54:29;22.40;70.50
23301;DHT22;11819;51.394;12.340;2022-07-22T06:56:57;22.40;70.40
23301;DHT22;11819;51.394;12.340;2022-07-22T06:59:28;22.40;70.30
23301;DHT22;11819;51.394;12.340;2022-07-22T07:01:54;22.50;70.10
23301;DHT22;11819;51.394;12.340;2022-07-22T07:04:20;22.50;70.00
23301;DHT22;11819;51.394;12.340;2022-07-22T07:06:46;22.50;69.90
23301;DHT22;11819;51.394;12.340;2022-07-22T07:09:30;22.60;70.60
23301;DHT22;11819;51.394;12.340;2022-07-22T07:12:03;22.60;69.60
23301;DHT22;11819;51.394;12.340;2022-07-22T07:14:47;22.70;69.50
23301;DHT22;11819;51.394;12.340;2022-07-22T07:17:14;22.70;69.30
23301;DHT22;11819;51.394;12.340;2022-07-22T07:19:41;22.70;69.10
23301;DHT22;11819;51.394;12.340;2022-07-22T07:22:07;22.70;69.10
23301;DHT22;11819;51.394;12.340;2022-07-22T07:24:32;22.80;69.00
23301;DHT22;11819;51.394;12.340;2022-07-22T07:26:58;22.80;68.80
23301;DHT22;11819;51.394;12.340;2022-07-22T07:29:24;22.80;68.80
23301;DHT22;11819;51.394;12.340;2022-07-22T07:31:50;22.80;68.60
23301;DHT22;11819;51.394;12.340;2022-07-22T07:34:17;22.80;68.50
23301;DHT22;11819;51.394;12.340;2022-07-22T07:36:42;22.90;68.40
23301;DHT22;11819;51.394;12.340;2022-07-22T07:39:10;22.80;68.20
23301;DHT22;11819;51.394;12.340;2022-07-22T07:41:36;22.80;68.30
23301;DHT22;11819;51.394;12.340;2022-07-22T07:44:03;22.80;68.40
23301;DHT22;11819;51.394;12.340;2022-07-22T07:46:28;22.70;68.30
23301;DHT22;11819;51.394;12.340;2022-07-22T07:48:55;22.70;68.30
23301;DHT22;11819;51.394;12.340;2022-07-22T07:51:21;22.70;68.40
23301;DHT22;11819;51.394;12.340;2022-07-22T07:53:46;22.70;68.30
23301;DHT22;11819;51.394;12.340;2022-07-22T07:56:12;22.70;68.20
23301;DHT22;11819;51.394;12.340;2022-07-22T07:58:38;22.70;68.10
23301;DHT22;11819;51.394;12.340;2022-07-22T08:01:05;22.70;68.10
23301;DHT22;11819;51.394;12.340;2022-07-22T08:03:31;22.70;67.90
23301;DHT22;11819;51.394;12.340;2022-07-22T08:05:58;22.80;67.70
23301;DHT22;11819;51.394;12.340;2022-07-22T08:08:26;22.80;67.50
23301;DHT22;11819;51.394;12.340;2022-07-22T08:10:53;22.80;67.40
23301;DHT22;11819;51.394;12.340;2022-07-22T08:13:31;22.90;67.40
23301;DHT22;11819;51.394;12.340;2022-07-22T08:16:18;23.00;67.40
23301;DHT22;11819;51.394;12.340;2022-07-22T08:18:44;23.10;67.10
23301;DHT22;11819;51.394;12.340;2022-07-22T08:21:11;23.10;66.30
23301;DHT22;11819;51.394;12.340;2022-07-22T08:23:46;23.20;66.20
23301;DHT22;11819;51.394;12.340;2022-07-22T08:26:12;23.30;66.00
23301;DHT22;11819;51.394;12.340;2022-07-22T08:28:38;23.30;65.70
23301;DHT22;11819;51.394;12.340;2022-07-22T08:31:03;23.40;65.60
23301;DHT22;11819;51.394;12.340;2022-07-22T08:33:29;23.50;65.40
23301;DHT22;11819;51.394;12.340;2022-07-22T08:35:56;23.60;64.50
23301;DHT22;11819;51.394;12.340;2022-07-22T08:38:21;23.70;64.10
23301;DHT22;11819;51.394;12.340;2022-07-22T08:40:48;23.70;63.60
23301;DHT22;11819;51.394;12.340;2022-07-22T08:43:14;23.70;63.60
23301;DHT22;11819;51.394;12.340;2022-07-22T08:45:40;23.70;63.60
23301;DHT22;11819;51.394;12.340;2022-07-22T08:48:07;23.70;63.60
23301;DHT22;11819;51.394;12.340;2022-07-22T08:50:47;23.80;63.40
23301;DHT22;11819;51.394;12.340;2022-07-22T08:53:21;23.70;62.90
23301;DHT22;11819;51.394;12.340;2022-07-22T08:55:48;23.80;63.80
23301;DHT22;11819;51.394;12.340;2022-07-22T08:58:14;23.80;62.80
23301;DHT22;11819;51.394;12.340;2022-07-22T09:00:40;23.80;62.80
23301;DHT22;11819;51.394;12.340;2022-07-22T09:03:46;23.80;62.70
23301;DHT22;11819;51.394;12.340;2022-07-22T09:06:12;23.80;62.50
23301;DHT22;11819;51.394;12.340;2022-07-22T09:09:02;23.80;62.50
23301;DHT22;11819;51.394;12.340;2022-07-22T09:11:48;23.90;62.40
23301;DHT22;11819;51.394;12.340;2022-07-22T09:14:51;23.90;62.40
23301;DHT22;11819;51.394;12.340;2022-07-22T09:17:37;24.00;62.20
23301;DHT22;11819;51.394;12.340;2022-07-22T09:20:22;24.10;62.10
23301;DHT22;11819;51.394;12.340;2022-07-22T09:23:19;24.20;61.80
23301;DHT22;11819;51.394;12.340;2022-07-22T09:25:51;24.20;61.70
23301;DHT22;11819;51.394;12.340;2022-07-22T09:28:56;24.30;61.60
23301;DHT22;11819;51.394;12.340;2022-07-22T09:31:41;24.30;61.30
23301;DHT22;11819;51.394;12.340;2022-07-22T09:34:31;24.30;61.20
23301;DHT22;11819;51.394;12.340;2022-07-22T09:37:01;24.30;61.30
23301;DHT22;11819;51.394;12.340;2022-07-22T09:39:31;24.20;61.20
23301;DHT22;11819;51.394;12.340;2022-07-22T09:42:06;24.30;61.30
23301;DHT22;11819;51.394;12.340;2022-07-22T09:44:33;24.20;61.30
23301;DHT22;11819;51.394;12.340;2022-07-22T09:47:05;24.20;61.40
23301;DHT22;11819;51.394;12.340;2022-07-22T09:49:48;24.10;61.40
23301;DHT22;11819;51.394;12.340;2022-07-22T09:52:35;24.10;61.60
23301;DHT22;11819;51.394;12.340;2022-07-22T09:55:05;24.10;61.50
23301;DHT22;11819;51.394;12.340;2022-07-22T09:57:31;24.10;61.40
23301;DHT22;11819;51.394;12.340;2022-07-22T09:59:57;24.10;61.50
23301;DHT22;11819;51.394;12.340;2022-07-22T10:02:47;24.20;61.50
23301;DHT22;11819;51.394;12.340;2022-07-22T10:05:15;24.30;61.40
23301;DHT22;11819;51.394;12.340;2022-07-22T10:07:42;24.30;61.00
23301;DHT22;11819;51.394;12.340;2022-07-22T10:10:10;24.20;60.80
23301;DHT22;11819;51.394;12.340;2022-07-22T10:12:37;24.20;60.90
23301;DHT22;11819;51.394;12.340;2022-07-22T10:15:04;24.30;61.00
23301;DHT22;11819;51.394;12.340;2022-07-22T10:17:31;24.30;61.20
23301;DHT22;11819;51.394;12.340;2022-07-22T10:19:58;24.30;61.40
23301;DHT22;11819;51.394;12.340;2022-07-22T10:25:06;24.30;62.00
23301;DHT22;11819;51.394;12.340;2022-07-22T10:30:22;24.40;62.60
23301;DHT22;11819;51.394;12.340;2022-07-22T10:33:11;24.40;63.30
23301;DHT22;11819;51.394;12.340;2022-07-22T10:38:18;24.40;64.10
23301;DHT22;11819;51.394;12.340;2022-07-22T10:41:01;24.50;64.20
23301;DHT22;11819;51.394;12.340;2022-07-22T10:43:51;24.60;64.30
23301;DHT22;11819;51.394;12.340;2022-07-22T10:46:16;24.70;64.10
23301;DHT22;11819;51.394;12.340;2022-07-22T10:51:10;24.90;63.60
23301;DHT22;11819;51.394;12.340;2022-07-22T11:01:09;25.30;61.60
23301;DHT22;11819;51.394;12.340;2022-07-22T11:03:37;25.40;61.60
23301;DHT22;11819;51.394;12.340;2022-07-22T11:06:24;25.50;61.40
23301;DHT22;11819;51.394;12.340;2022-07-22T11:08:55;25.60;62.00
23301;DHT22;11819;51.394;12.340;2022-07-22T11:11:45;25.70;61.00
23301;DHT22;11819;51.394;12.340;2022-07-22T11:14:24;25.80;60.70
23301;DHT22;11819;51.394;12.340;2022-07-22T11:16:58;25.90;60.30
23301;DHT22;11819;51.394;12.340;2022-07-22T11:19:28;25.90;59.80
23301;DHT22;11819;51.394;12.340;2022-07-22T11:21:57;25.70;59.40
23301;DHT22;11819;51.394;12.340;2022-07-22T11:24:24;25.60;59.50
23301;DHT22;11819;51.394;12.340;2022-07-22T11:26:52;25.60;59.50
23301;DHT22;11819;51.394;12.340;2022-07-22T11:29:47;25.50;59.50
23301;DHT22;11819;51.394;12.340;2022-07-22T11:32:14;25.50;59.60
23301;DHT22;11819;51.394;12.340;2022-07-22T11:34:41;25.50;59.70
23301;DHT22;11819;51.394;12.340;2022-07-22T11:37:10;25.60;59.70
23301;DHT22;11819;51.394;12.340;2022-07-22T11:39:37;25.80;59.70
23301;DHT22;11819;51.394;12.340;2022-07-22T11:42:03;25.90;58.70
23301;DHT22;11819;51.394;12.340;2022-07-22T11:44:31;26.00;58.90
23301;DHT22;11819;51.394;12.340;2022-07-22T11:46:58;26.00;58.60
23301;DHT22;11819;51.394;12.340;2022-07-22T11:49:26;26.10;58.70
23301;DHT22;11819;51.394;12.340;2022-07-22T11:51:52;26.10;58.70
23301;DHT22;11819;51.394;12.340;2022-07-22T11:54:18;26.10;58.40
23301;DHT22;11819;51.394;12.340;2022-07-22T11:56:43;26.00;58.50
23301;DHT22;11819;51.394;12.340;2022-07-22T11:59:13;26.10;58.70
23301;DHT22;11819;51.394;12.340;2022-07-22T12:01:39;26.10;58.80
23301;DHT22;11819;51.394;12.340;2022-07-22T12:04:09;26.20;58.80
23301;DHT22;11819;51.394;12.340;2022-07-22T12:06:37;26.30;58.70
23301;DHT22;11819;51.394;12.340;2022-07-22T12:09:08;26.30;58.40
23301;DHT22;11819;51.394;12.340;2022-07-22T12:11:36;26.30;58.40
23301;DHT22;11819;51.394;12.340;2022-07-22T12:14:13;26.30;58.30
23301;DHT22;11819;51.394;12.340;2022-07-22T12:16:39;26.50;58.70
23301;DHT22;11819;51.394;12.340;2022-07-22T12:19:07;26.70;57.70
23301;DHT22;11819;51.394;12.340;2022-07-22T12:21:54;26.70;57.30
23301;DHT22;11819;51.394;12.340;2022-07-22T12:24:38;26.70;57.20
23301;DHT22;11819;51.394;12.340;2022-07-22T12:32:17;27.40;56.50
23301;DHT22;11819;51.394;12.340;2022-07-22T12:40:06;27.80;54.80
23301;DHT22;11819;51.394;12.340;2022-07-22T12:42:35;27.90;55.00
23301;DHT22;11819;51.394;12.340;2022-07-22T12:53:03;27.60;53.70
23301;DHT22;11819;51.394;12.340;2022-07-22T12:55:31;27.40;54.00
23301;DHT22;11819;51.394;12.340;2022-07-22T12:57:57;27.40;54.30
23301;DHT22;11819;51.394;12.340;2022-07-22T13:00:45;27.40;54.60
23301;DHT22;11819;51.394;12.340;2022-07-22T13:03:09;27.50;54.50
23301;DHT22;11819;51.394;12.340;2022-07-22T13:05:35;27.60;54.60
23301;DHT22;11819;51.394;12.340;2022-07-22T13:08:02;27.60;54.40
23301;DHT22;11819;51.394;12.340;2022-07-22T13:10:28;27.60;54.40
23301;DHT22;11819;51.394;12.340;2022-07-22T13:12:53;27.60;54.40
23301;DHT22;11819;51.394;12.340;2022-07-22T13:15:20;27.80;54.40
23301;DHT22;11819;51.394;12.340;2022-07-22T13:17:47;27.80;54.20
23301;DHT22;11819;51.394;12.340;2022-07-22T13:20:13;27.80;54.10
23301;DHT22;11819;51.394;12.340;2022-07-22T13:22:42;27.80;54.10
23301;DHT22;11819;51.394;12.340;2022-07-22T13:25:09;27.80;54.10
23301;DHT22;11819;51.394;12.340;2022-07-22T13:27:34;27.80;54.10
23301;DHT22;11819;51.394;12.340;2022-07-22T13:30:00;27.80;54.10
23301;DHT22;11819;51.394;12.340;2022-07-22T13:32:26;27.70;54.00
23301;DHT22;11819;51.394;12.340;2022-07-22T13:34:52;27.70;54.00
23301;DHT22;11819;51.394;12.340;2022-07-22T13:37:17;27.60;54.10
23301;DHT22;11819;51.394;12.340;2022-07-22T13:39:43;27.60;54.00
23301;DHT22;11819;51.394;12.340;2022-07-22T13:42:12;27.60;54.10
23301;DHT22;11819;51.394;12.340;2022-07-22T13:44:38;27.80;54.30
23301;DHT22;11819;51.394;12.340;2022-07-22T13:47:04;28.30;54.40
23301;DHT22;11819;51.394;12.340;2022-07-22T13:49:29;28.90;54.70
23301;DHT22;11819;51.394;12.340;2022-07-22T13:51:55;29.30;53.30
23301;DHT22;11819;51.394;12.340;2022-07-22T13:54:21;29.60;51.90
23301;DHT22;11819;51.394;12.340;2022-07-22T13:56:46;29.60;50.80
23301;DHT22;11819;51.394;12.340;2022-07-22T13:59:14;29.40;50.90
23301;DHT22;11819;51.394;12.340;2022-07-22T14:01:40;29.20;50.90
23301;DHT22;11819;51.394;12.340;2022-07-22T14:04:05;29.10;51.00
23301;DHT22;11819;51.394;12.340;2022-07-22T14:06:32;28.90;51.10
23301;DHT22;11819;51.394;12.340;2022-07-22T14:08:58;28.70;51.40
23301;DHT22;11819;51.394;12.340;2022-07-22T14:11:24;28.60;51.50
23301;DHT22;11819;51.394;12.340;2022-07-22T14:13:50;28.50;51.60
23301;DHT22;11819;51.394;12.340;2022-07-22T14:16:15;28.50;51.70
23301;DHT22;11819;51.394;12.340;2022-07-22T14:19:01;28.40;51.70
23301;DHT22;11819;51.394;12.340;2022-07-22T14:21:27;28.40;51.70
23301;DHT22;11819;51.394;12.340;2022-07-22T14:23:52;28.30;51.80
23301;DHT22;11819;51.394;12.340;2022-07-22T14:26:18;28.50;52.20
23301;DHT22;11819;51.394;12.340;2022-07-22T14:28:44;28.90;52.30
23301;DHT22;11819;51.394;12.340;2022-07-22T14:31:09;29.50;51.80
23301;DHT22;11819;51.394;12.340;2022-07-22T14:33:35;29.80;50.80
23301;DHT22;11819;51.394;12.340;2022-07-22T14:36:01;29.90;50.20
23301;DHT22;11819;51.394;12.340;2022-07-22T14:38:26;29.90;50.00
23301;DHT22;11819;51.394;12.340;2022-07-22T14:40:52;29.90;50.00
23301;DHT22;11819;51.394;12.340;2022-07-22T14:43:17;30.20;50.00
23301;DHT22;11819;51.394;12.340;2022-07-22T14:45:43;30.30;49.50
23301;DHT22;11819;51.394;12.340;2022-07-22T14:48:09;30.40;49.00
23301;DHT22;11819;51.394;12.340;2022-07-22T14:50:34;30.30;48.70
23301;DHT22;11819;51.394;12.340;2022-07-22T14:53:00;30.30;48.70
23301;DHT22;11819;51.394;12.340;2022-07-22T14:55:25;30.60;48.60
23301;DHT22;11819;51.394;12.340;2022-07-22T14:57:51;30.80;48.40
23301;DHT22;11819;51.394;12.340;2022-07-22T15:00:17;31.10;48.20
23301;DHT22;11819;51.394;12.340;2022-07-22T15:02:42;31.50;47.90
23301;DHT22;11819;51.394;12.340;2022-07-22T15:05:08;31.80;47.30
23301;DHT22;11819;51.394;12.340;2022-07-22T15:07:34;32.00;46.90
23301;DHT22;11819;51.394;12.340;2022-07-22T15:10:00;32.30;46.50
23301;DHT22;11819;51.394;12.340;2022-07-22T15:12:25;32.60;46.10
23301;DHT22;11819;51.394;12.340;2022-07-22T15:14:51;32.80;45.80
23301;DHT22;11819;51.394;12.340;2022-07-22T15:17:17;33.00;45.30
23301;DHT22;11819;51.394;12.340;2022-07-22T15:19:43;33.10;44.80
23301;DHT22;11819;51.394;12.340;2022-07-22T15:22:09;33.10;44.40
23301;DHT22;11819;51.394;12.340;2022-07-22T15:24:35;33.10;44.60
23301;DHT22;11819;51.394;12.340;2022-07-22T15:27:00;33.10;44.00
23301;DHT22;11819;51.394;12.340;2022-07-22T15:29:26;33.10;44.00
23301;DHT22;11819;51.394;12.340;2022-07-22T15:31:52;33.20;43.70
23301;DHT22;11819;51.394;12.340;2022-07-22T15:34:18;33.30;43.60
23301;DHT22;11819;51.394;12.340;2022-07-22T15:36:43;33.40;43.60
23301;DHT22;11819;51.394;12.340;2022-07-22T15:39:09;33.50;43.40
23301;DHT22;11819;51.394;12.340;2022-07-22T15:41:35;33.70;43.20
23301;DHT22;11819;51.394;12.340;2022-07-22T15:44:05;33.90;42.90
23301;DHT22;11819;51.394;12.340;2022-07-22T15:46:30;34.00;42.70
23301;DHT22;11819;51.394;12.340;2022-07-22T15:48:56;34.10;42.30
23301;DHT22;11819;51.394;12.340;2022-07-22T15:51:22;34.10;42.00
23301;DHT22;11819;51.394;12.340;2022-07-22T15:53:48;34.10;41.90
23301;DHT22;11819;51.394;12.340;2022-07-22T15:56:14;34.00;41.80
23301;DHT22;11819;51.394;12.340;2022-07-22T15:58:39;34.00;41.60
23301;DHT22;11819;51.394;12.340;2022-07-22T16:01:24;33.90;41.60